sensor_id;sensor_type;location;lat;lon;timestamp;temperature;humidity
51567;DHT22;37657;53.182;5.638;2024-02-14T00:01:48;7.80;99.90
51567;DHT22;37657;53.182;5.638;2024-02-14T00:04:14;8.30;99.90
51567;DHT22;37657;53.182;5.638;2024-02-14T00:06:40;7.90;99.90
51567;DHT22;37657;53.182;5.638;2024-02-14T00:09:06;8.00;99.90
51567;DHT22;37657;53.182;5.638;2024-02-14T00:11:32;8.20;99.90
51567;DHT22;37657;53.182;5.638;2024-02-14T00:13:58;8.20;99.90
51567;DHT22;37657;53.182;5.638;2024-02-14T00:16:25;8.00;99.90
51567;DHT22;37657;53.182;5.638;2024-02-14T00:18:51;7.40;99.90
51567;DHT22;37657;53.182;5.638;2024-02-14T00:21:16;8.30;99.90
51567;DHT22;37657;53.182;5.638;2024-02-14T00:23:42;8.30;99.90
51567;DHT22;37657;53.182;5.638;2024-02-14T00:26:09;8.20;99.90
51567;DHT22;37657;53.182;5.638;2024-02-14T00:28:34;7.70;99.90
51567;DHT22;37657;53.182;5.638;2024-02-14T00:31:00;7.50;99.90
51567;DHT22;37657;53.182;5.638;2024-02-14T00:33:25;7.60;99.90
51567;DHT22;37657;53.182;5.638;2024-02-14T00:35:51;7.80;99.90
51567;DHT22;37657;53.182;5.638;2024-02-14T00:38:17;8.50;99.90
51567;DHT22;37657;53.182;5.638;2024-02-14T00:40:43;8.40;99.90
51567;DHT22;37657;53.182;5.638;2024-02-14T00:43:08;8.40;99.90
51567;DHT22;37657;53.182;5.638;2024-02-14T00:45:34;8.20;99.90
51567;DHT22;37657;53.182;5.638;2024-02-14T00:48:01;7.60;99.90
51567;DHT22;37657;53.182;5.638;2024-02-14T00:50:29;8.40;99.90
51567;DHT22;37657;53.182;5.638;2024-02-14T00:52:54;8.10;99.90
51567;DHT22;37657;53.182;5.638;2024-02-14T00:55:20;7.90;99.90
51567;DHT22;37657;53.182;5.638;2024-02-14T00:57:46;8.10;99.90
51567;DHT22;37657;53.182;5.638;2024-02-14T01:00:11;7.80;99.90
51567;DHT22;37657;53.182;5.638;2024-02-14T01:02:37;8.90;99.90
51567;DHT22;37657;53.182;5.638;2024-02-14T01:05:03;8.20;99.90
51567;DHT22;37657;53.182;5.638;2024-02-14T01:07:29;8.50;99.90
51567;DHT22;37657;53.182;5.638;2024-02-14T01:09:55;8.20;99.90
51567;DHT22;37657;53.182;5.638;2024-02-14T01:12:21;8.90;99.90
51567;DHT22;37657;53.182;5.638;2024-02-14T01:14:46;8.20;99.90
51567;DHT22;37657;53.182;5.638;2024-02-14T01:17:12;9.00;99.90
51567;DHT22;37657;53.182;5.638;2024-02-14T01:19:38;8.40;99.90
51567;DHT22;37657;53.182;5.638;2024-02-14T01:22:03;7.90;99.90
51567;DHT22;37657;53.182;5.638;2024-02-14T01:24:29;8.10;99.90
51567;DHT22;37657;53.182;5.638;2024-02-14T01:26:55;8.10;99.90
51567;DHT22;37657;53.182;5.638;2024-02-14T01:29:21;9.10;99.90
51567;DHT22;37657;53.182;5.638;2024-02-14T01:31:48;8.40;99.90
51567;DHT22;37657;53.182;5.638;2024-02-14T01:34:15;9.20;99.90
51567;DHT22;37657;53.182;5.638;2024-02-14T01:36:41;8.60;99.90
51567;DHT22;37657;53.182;5.638;2024-02-14T01:39:07;9.10;99.90
51567;DHT22;37657;53.182;5.638;2024-02-14T01:41:37;8.10;99.90
51567;DHT22;37657;53.182;5.638;2024-02-14T01:44:04;9.30;99.90
51567;DHT22;37657;53.182;5.638;2024-02-14T01:46:29;8.40;99.90
51567;DHT22;37657;53.182;5.638;2024-02-14T01:48:55;9.30;99.90
51567;DHT22;37657;53.182;5.638;2024-02-14T01:51:22;9.30;99.90
51567;DHT22;37657;53.182;5.638;2024-02-14T01:53:50;8.00;99.90
51567;DHT22;37657;53.182;5.638;2024-02-14T01:56:16;8.10;99.90
51567;DHT22;37657;53.182;5.638;2024-02-14T01:58:43;8.10;99.90
51567;DHT22;37657;53.182;5.638;2024-02-14T02:01:09;9.30;99.90
51567;DHT22;37657;53.182;5.638;2024-02-14T02:03:35;8.70;99.90
51567;DHT22;37657;53.182;5.638;2024-02-14T02:06:04;8.90;99.90
51567;DHT22;37657;53.182;5.638;2024-02-14T02:08:30;9.30;99.90
51567;DHT22;37657;53.182;5.638;2024-02-14T02:10:57;9.30;99.90
51567;DHT22;37657;53.182;5.638;2024-02-14T02:13:23;9.50;99.90
51567;DHT22;37657;53.182;5.638;2024-02-14T02:15:49;8.20;99.90
51567;DHT22;37657;53.182;5.638;2024-02-14T02:18:15;9.50;99.90
51567;DHT22;37657;53.182;5.638;2024-02-14T02:20:40;9.50;99.90
51567;DHT22;37657;53.182;5.638;2024-02-14T02:23:10;9.50;99.90
51567;DHT22;37657;53.182;5.638;2024-02-14T02:25:36;9.40;99.90
51567;DHT22;37657;53.182;5.638;2024-02-14T02:28:02;8.20;99.90
51567;DHT22;37657;53.182;5.638;2024-02-14T02:30:27;8.60;99.90
51567;DHT22;37657;53.182;5.638;2024-02-14T02:32:53;9.40;99.90
51567;DHT22;37657;53.182;5.638;2024-02-14T02:35:18;9.60;99.90
51567;DHT22;37657;53.182;5.638;2024-02-14T02:37:46;9.70;99.90
51567;DHT22;37657;53.182;5.638;2024-02-14T02:40:13;8.50;99.90
51567;DHT22;37657;53.182;5.638;2024-02-14T02:42:40;9.10;99.90
51567;DHT22;37657;53.182;5.638;2024-02-14T02:45:06;8.70;99.90
51567;DHT22;37657;53.182;5.638;2024-02-14T02:47:32;9.80;99.90
51567;DHT22;37657;53.182;5.638;2024-02-14T02:49:58;8.70;99.90
51567;DHT22;37657;53.182;5.638;2024-02-14T02:52:25;9.40;99.90
51567;DHT22;37657;53.182;5.638;2024-02-14T02:54:51;9.00;99.90
51567;DHT22;37657;53.182;5.638;2024-02-14T02:57:18;9.30;99.90
51567;DHT22;37657;53.182;5.638;2024-02-14T02:59:44;9.60;99.90
51567;DHT22;37657;53.182;5.638;2024-02-14T03:02:11;9.90;99.90
51567;DHT22;37657;53.182;5.638;2024-02-14T03:04:38;8.60;99.90
51567;DHT22;37657;53.182;5.638;2024-02-14T03:07:04;10.10;99.90
51567;DHT22;37657;53.182;5.638;2024-02-14T03:09:29;8.90;99.90
51567;DHT22;37657;53.182;5.638;2024-02-14T03:11:55;9.90;99.90
51567;DHT22;37657;53.182;5.638;2024-02-14T03:14:22;10.10;99.90
51567;DHT22;37657;53.182;5.638;2024-02-14T03:16:48;9.60;99.90
51567;DHT22;37657;53.182;5.638;2024-02-14T03:19:13;9.60;99.90
51567;DHT22;37657;53.182;5.638;2024-02-14T03:21:39;10.10;99.90
51567;DHT22;37657;53.182;5.638;2024-02-14T03:24:05;10.00;99.90
51567;DHT22;37657;53.182;5.638;2024-02-14T03:26:34;9.60;99.90
51567;DHT22;37657;53.182;5.638;2024-02-14T03:29:03;9.20;99.90
51567;DHT22;37657;53.182;5.638;2024-02-14T03:31:32;10.10;99.90
51567;DHT22;37657;53.182;5.638;2024-02-14T03:33:58;9.70;99.90
51567;DHT22;37657;53.182;5.638;2024-02-14T03:36:23;9.50;99.90
51567;DHT22;37657;53.182;5.638;2024-02-14T03:38:52;9.10;99.90
51567;DHT22;37657;53.182;5.638;2024-02-14T03:41:18;9.00;99.90
51567;DHT22;37657;53.182;5.638;2024-02-14T03:43:43;9.00;99.90
51567;DHT22;37657;53.182;5.638;2024-02-14T03:46:09;9.40;99.90
51567;DHT22;37657;53.182;5.638;2024-02-14T03:48:35;9.30;99.90
51567;DHT22;37657;53.182;5.638;2024-02-14T03:51:01;9.80;99.90
51567;DHT22;37657;53.182;5.638;2024-02-14T03:53:26;9.60;99.90
51567;DHT22;37657;53.182;5.638;2024-02-14T03:55:52;9.20;99.90
51567;DHT22;37657;53.182;5.638;2024-02-14T03:58:19;9.30;99.90
51567;DHT22;37657;53.182;5.638;2024-02-14T04:00:51;9.20;99.90
51567;DHT22;37657;53.182;5.638;2024-02-14T04:03:18;10.70;99.90
51567;DHT22;37657;53.182;5.638;2024-02-14T04:05:44;10.80;99.90
51567;DHT22;37657;53.182;5.638;2024-02-14T04:08:13;10.60;99.90
51567;DHT22;37657;53.182;5.638;2024-02-14T04:10:39;10.50;99.90
51567;DHT22;37657;53.182;5.638;2024-02-14T04:13:05;9.50;99.90
51567;DHT22;37657;53.182;5.638;2024-02-14T04:15:31;9.30;99.90
51567;DHT22;37657;53.182;5.638;2024-02-14T04:17:57;9.30;99.90
51567;DHT22;37657;53.182;5.638;2024-02-14T04:20:24;9.40;99.90
51567;DHT22;37657;53.182;5.638;2024-02-14T04:22:50;9.60;99.90
51567;DHT22;37657;53.182;5.638;2024-02-14T04:25:16;10.60;99.90
51567;DHT22;37657;53.182;5.638;2024-02-14T04:27:41;9.30;99.90
51567;DHT22;37657;53.182;5.638;2024-02-14T04:30:07;10.30;99.90
51567;DHT22;37657;53.182;5.638;2024-02-14T04:32:33;9.40;99.90
51567;DHT22;37657;53.182;5.638;2024-02-14T04:34:58;10.70;99.90
51567;DHT22;37657;53.182;5.638;2024-02-14T04:37:24;10.00;99.90
51567;DHT22;37657;53.182;5.638;2024-02-14T04:39:50;9.80;99.90
51567;DHT22;37657;53.182;5.638;2024-02-14T04:42:15;10.60;99.90
51567;DHT22;37657;53.182;5.638;2024-02-14T04:44:41;10.50;99.90
51567;DHT22;37657;53.182;5.638;2024-02-14T04:47:07;9.60;99.90
51567;DHT22;37657;53.182;5.638;2024-02-14T04:49:35;10.70;99.90
51567;DHT22;37657;53.182;5.638;2024-02-14T04:52:00;9.50;99.90
51567;DHT22;37657;53.182;5.638;2024-02-14T04:54:26;9.40;99.90
51567;DHT22;37657;53.182;5.638;2024-02-14T04:56:53;9.40;99.90
51567;DHT22;37657;53.182;5.638;2024-02-14T04:59:19;10.30;99.90
51567;DHT22;37657;53.182;5.638;2024-02-14T05:01:45;10.70;99.90
51567;DHT22;37657;53.182;5.638;2024-02-14T05:04:11;9.30;99.90
51567;DHT22;37657;53.182;5.638;2024-02-14T05:06:38;10.50;99.90
51567;DHT22;37657;53.182;5.638;2024-02-14T05:09:04;10.50;99.90
51567;DHT22;37657;53.182;5.638;2024-02-14T05:11:30;9.40;99.90
51567;DHT22;37657;53.182;5.638;2024-02-14T05:13:56;9.50;99.90
51567;DHT22;37657;53.182;5.638;2024-02-14T05:16:22;10.60;99.90
51567;DHT22;37657;53.182;5.638;2024-02-14T05:18:48;10.40;99.90
51567;DHT22;37657;53.182;5.638;2024-02-14T05:21:14;10.70;99.90
51567;DHT22;37657;53.182;5.638;2024-02-14T05:23:40;10.70;99.90
51567;DHT22;37657;53.182;5.638;2024-02-14T05:26:06;10.60;99.90
51567;DHT22;37657;53.182;5.638;2024-02-14T05:28:31;9.90;99.90
51567;DHT22;37657;53.182;5.638;2024-02-14T05:30:59;9.60;99.90
51567;DHT22;37657;53.182;5.638;2024-02-14T05:33:25;10.30;99.90
51567;DHT22;37657;53.182;5.638;2024-02-14T05:35:51;9.60;99.90
51567;DHT22;37657;53.182;5.638;2024-02-14T05:38:18;9.80;99.90
51567;DHT22;37657;53.182;5.638;2024-02-14T05:40:47;9.70;99.90
51567;DHT22;37657;53.182;5.638;2024-02-14T05:43:13;10.10;99.90
51567;DHT22;37657;53.182;5.638;2024-02-14T05:45:39;10.20;99.90
51567;DHT22;37657;53.182;5.638;2024-02-14T05:48:05;10.60;99.90
51567;DHT22;37657;53.182;5.638;2024-02-14T05:50:31;9.70;99.90
51567;DHT22;37657;53.182;5.638;2024-02-14T05:52:57;10.20;99.90
51567;DHT22;37657;53.182;5.638;2024-02-14T05:55:24;10.90;99.90
51567;DHT22;37657;53.182;5.638;2024-02-14T05:57:52;9.80;99.90
51567;DHT22;37657;53.182;5.638;2024-02-14T06:00:19;10.30;99.90
51567;DHT22;37657;53.182;5.638;2024-02-14T06:02:49;9.60;99.90
51567;DHT22;37657;53.182;5.638;2024-02-14T06:05:15;10.80;99.90
51567;DHT22;37657;53.182;5.638;2024-02-14T06:07:41;10.10;99.90
51567;DHT22;37657;53.182;5.638;2024-02-14T06:10:08;10.50;99.90
51567;DHT22;37657;53.182;5.638;2024-02-14T06:12:34;9.70;99.90
51567;DHT22;37657;53.182;5.638;2024-02-14T06:15:03;10.80;99.90
51567;DHT22;37657;53.182;5.638;2024-02-14T06:17:29;9.80;99.90
51567;DHT22;37657;53.182;5.638;2024-02-14T06:19:55;9.70;99.90
51567;DHT22;37657;53.182;5.638;2024-02-14T06:22:21;10.40;99.90
51567;DHT22;37657;53.182;5.638;2024-02-14T06:24:47;9.70;99.90
51567;DHT22;37657;53.182;5.638;2024-02-14T06:27:15;10.80;99.90
51567;DHT22;37657;53.182;5.638;2024-02-14T06:29:44;10.90;99.90
51567;DHT22;37657;53.182;5.638;2024-02-14T06:32:13;10.90;99.90
51567;DHT22;37657;53.182;5.638;2024-02-14T06:34:40;10.40;99.90
51567;DHT22;37657;53.182;5.638;2024-02-14T06:37:07;10.30;99.90
51567;DHT22;37657;53.182;5.638;2024-02-14T06:39:34;10.10;99.90
51567;DHT22;37657;53.182;5.638;2024-02-14T06:42:01;9.60;99.90
51567;DHT22;37657;53.182;5.638;2024-02-14T06:44:27;10.60;99.90
51567;DHT22;37657;53.182;5.638;2024-02-14T06:46:52;10.90;99.90
51567;DHT22;37657;53.182;5.638;2024-02-14T06:49:18;9.70;99.90
51567;DHT22;37657;53.182;5.638;2024-02-14T06:51:44;11.00;99.90
51567;DHT22;37657;53.182;5.638;2024-02-14T06:54:10;11.00;99.90
51567;DHT22;37657;53.182;5.638;2024-02-14T06:56:38;10.30;99.90
51567;DHT22;37657;53.182;5.638;2024-02-14T06:59:03;10.20;99.90
51567;DHT22;37657;53.182;5.638;2024-02-14T07:01:30;10.70;99.90
51567;DHT22;37657;53.182;5.638;2024-02-14T07:03:56;10.40;99.90
51567;DHT22;37657;53.182;5.638;2024-02-14T07:06:22;10.20;99.90
51567;DHT22;37657;53.182;5.638;2024-02-14T07:08:48;11.10;99.90
51567;DHT22;37657;53.182;5.638;2024-02-14T07:11:14;11.00;99.90
51567;DHT22;37657;53.182;5.638;2024-02-14T07:13:41;9.80;99.90
51567;DHT22;37657;53.182;5.638;2024-02-14T07:16:07;10.90;99.90
51567;DHT22;37657;53.182;5.638;2024-02-14T07:18:34;10.40;99.90
51567;DHT22;37657;53.182;5.638;2024-02-14T07:20:59;10.00;99.90
51567;DHT22;37657;53.182;5.638;2024-02-14T07:23:25;10.80;99.90
51567;DHT22;37657;53.182;5.638;2024-02-14T07:25:51;10.20;99.90
51567;DHT22;37657;53.182;5.638;2024-02-14T07:28:17;10.20;99.90
51567;DHT22;37657;53.182;5.638;2024-02-14T07:30:43;10.00;99.90
51567;DHT22;37657;53.182;5.638;2024-02-14T07:33:09;10.30;99.90
51567;DHT22;37657;53.182;5.638;2024-02-14T07:35:36;10.00;99.90
51567;DHT22;37657;53.182;5.638;2024-02-14T07:38:02;10.70;99.90
51567;DHT22;37657;53.182;5.638;2024-02-14T07:40:27;10.50;99.90
51567;DHT22;37657;53.182;5.638;2024-02-14T07:42:56;10.00;99.90
51567;DHT22;37657;53.182;5.638;2024-02-14T07:45:22;10.70;99.90
51567;DHT22;37657;53.182;5.638;2024-02-14T07:47:49;10.00;99.90
51567;DHT22;37657;53.182;5.638;2024-02-14T07:50:15;11.30;99.90
51567;DHT22;37657;53.182;5.638;2024-02-14T07:52:44;10.30;99.90
51567;DHT22;37657;53.182;5.638;2024-02-14T07:55:11;10.20;99.90
51567;DHT22;37657;53.182;5.638;2024-02-14T07:57:40;11.30;99.90
51567;DHT22;37657;53.182;5.638;2024-02-14T08:00:07;11.60;99.90
51567;DHT22;37657;53.182;5.638;2024-02-14T08:02:36;11.10;99.90
51567;DHT22;37657;53.182;5.638;2024-02-14T08:05:02;10.30;99.90
51567;DHT22;37657;53.182;5.638;2024-02-14T08:07:30;10.20;99.90
51567;DHT22;37657;53.182;5.638;2024-02-14T08:09:56;11.30;99.90
51567;DHT22;37657;53.182;5.638;2024-02-14T08:12:22;10.20;99.90
51567;DHT22;37657;53.182;5.638;2024-02-14T08:14:48;10.20;99.90
51567;DHT22;37657;53.182;5.638;2024-02-14T08:17:14;10.20;99.90
51567;DHT22;37657;53.182;5.638;2024-02-14T08:19:39;11.20;99.90
51567;DHT22;37657;53.182;5.638;2024-02-14T08:22:05;10.70;99.90
51567;DHT22;37657;53.182;5.638;2024-02-14T08:24:32;11.40;99.90
51567;DHT22;37657;53.182;5.638;2024-02-14T08:26:58;10.20;99.90
51567;DHT22;37657;53.182;5.638;2024-02-14T08:29:23;10.40;99.90
51567;DHT22;37657;53.182;5.638;2024-02-14T08:31:49;10.30;99.90
51567;DHT22;37657;53.182;5.638;2024-02-14T08:34:15;10.20;99.90
51567;DHT22;37657;53.182;5.638;2024-02-14T08:36:42;10.20;99.90
51567;DHT22;37657;53.182;5.638;2024-02-14T08:39:08;11.40;99.90
51567;DHT22;37657;53.182;5.638;2024-02-14T08:41:36;10.80;99.90
51567;DHT22;37657;53.182;5.638;2024-02-14T08:44:01;10.30;99.90
51567;DHT22;37657;53.182;5.638;2024-02-14T08:46:27;11.60;99.90
51567;DHT22;37657;53.182;5.638;2024-02-14T08:48:53;11.70;99.90
51567;DHT22;37657;53.182;5.638;2024-02-14T08:51:19;10.60;99.90
51567;DHT22;37657;53.182;5.638;2024-02-14T08:53:48;10.40;99.90
51567;DHT22;37657;53.182;5.638;2024-02-14T08:56:13;11.70;99.90
51567;DHT22;37657;53.182;5.638;2024-02-14T08:58:39;10.50;99.90
51567;DHT22;37657;53.182;5.638;2024-02-14T09:01:05;11.40;99.90
51567;DHT22;37657;53.182;5.638;2024-02-14T09:03:31;11.40;99.90
51567;DHT22;37657;53.182;5.638;2024-02-14T09:05:57;11.30;99.90
51567;DHT22;37657;53.182;5.638;2024-02-14T09:08:23;11.80;99.90
51567;DHT22;37657;53.182;5.638;2024-02-14T09:10:50;10.70;99.90
51567;DHT22;37657;53.182;5.638;2024-02-14T09:13:15;11.30;99.90
51567;DHT22;37657;53.182;5.638;2024-02-14T09:15:42;11.80;99.90
51567;DHT22;37657;53.182;5.638;2024-02-14T09:18:08;11.10;99.90
51567;DHT22;37657;53.182;5.638;2024-02-14T09:20:34;11.80;99.90
51567;DHT22;37657;53.182;5.638;2024-02-14T09:23:00;11.60;99.90
51567;DHT22;37657;53.182;5.638;2024-02-14T09:25:25;10.70;99.90
51567;DHT22;37657;53.182;5.638;2024-02-14T09:27:51;11.10;99.90
51567;DHT22;37657;53.182;5.638;2024-02-14T09:30:17;11.70;99.90
51567;DHT22;37657;53.182;5.638;2024-02-14T09:32:46;10.70;99.90
51567;DHT22;37657;53.182;5.638;2024-02-14T09:35:13;11.80;99.90
51567;DHT22;37657;53.182;5.638;2024-02-14T09:37:39;11.60;99.90
51567;DHT22;37657;53.182;5.638;2024-02-14T09:40:05;11.40;99.90
51567;DHT22;37657;53.182;5.638;2024-02-14T09:42:38;11.00;99.90
51567;DHT22;37657;53.182;5.638;2024-02-14T09:45:06;10.70;99.90
51567;DHT22;37657;53.182;5.638;2024-02-14T09:47:32;10.80;99.90
51567;DHT22;37657;53.182;5.638;2024-02-14T09:50:00;10.60;99.90
51567;DHT22;37657;53.182;5.638;2024-02-14T09:52:26;10.60;99.90
51567;DHT22;37657;53.182;5.638;2024-02-14T09:54:53;10.90;99.90
51567;DHT22;37657;53.182;5.638;2024-02-14T09:57:19;11.50;99.90
51567;DHT22;37657;53.182;5.638;2024-02-14T09:59:46;10.70;99.90
51567;DHT22;37657;53.182;5.638;2024-02-14T10:02:13;11.00;99.90
51567;DHT22;37657;53.182;5.638;2024-02-14T10:04:39;11.00;99.90
51567;DHT22;37657;53.182;5.638;2024-02-14T10:07:05;10.70;99.90
51567;DHT22;37657;53.182;5.638;2024-02-14T10:09:31;11.60;99.90
51567;DHT22;37657;53.182;5.638;2024-02-14T10:12:05;11.90;99.90
51567;DHT22;37657;53.182;5.638;2024-02-14T10:14:31;10.70;99.90
51567;DHT22;37657;53.182;5.638;2024-02-14T10:16:56;10.80;99.90
51567;DHT22;37657;53.182;5.638;2024-02-14T10:19:22;11.10;99.90
51567;DHT22;37657;53.182;5.638;2024-02-14T10:22:15;12.10;99.90
51567;DHT22;37657;53.182;5.638;2024-02-14T10:24:41;11.30;99.90
51567;DHT22;37657;53.182;5.638;2024-02-14T10:27:07;12.00;99.90
51567;DHT22;37657;53.182;5.638;2024-02-14T10:29:34;12.00;99.90
51567;DHT22;37657;53.182;5.638;2024-02-14T10:31:59;10.90;99.90
51567;DHT22;37657;53.182;5.638;2024-02-14T10:34:25;11.70;99.90
51567;DHT22;37657;53.182;5.638;2024-02-14T10:36:53;12.10;99.90
51567;DHT22;37657;53.182;5.638;2024-02-14T10:39:21;11.60;99.90
51567;DHT22;37657;53.182;5.638;2024-02-14T10:41:48;11.10;99.90
51567;DHT22;37657;53.182;5.638;2024-02-14T10:44:15;11.00;99.90
51567;DHT22;37657;53.182;5.638;2024-02-14T10:46:41;11.30;99.90
51567;DHT22;37657;53.182;5.638;2024-02-14T10:49:10;10.90;99.90
51567;DHT22;37657;53.182;5.638;2024-02-14T10:51:38;11.10;99.90
51567;DHT22;37657;53.182;5.638;2024-02-14T10:54:13;10.90;99.90
51567;DHT22;37657;53.182;5.638;2024-02-14T10:56:41;10.90;99.90
51567;DHT22;37657;53.182;5.638;2024-02-14T10:59:09;11.40;99.90
51567;DHT22;37657;53.182;5.638;2024-02-14T11:01:37;11.00;99.90
51567;DHT22;37657;53.182;5.638;2024-02-14T11:04:03;12.00;99.90
51567;DHT22;37657;53.182;5.638;2024-02-14T11:06:30;12.10;99.90
51567;DHT22;37657;53.182;5.638;2024-02-14T11:09:03;11.90;99.90
51567;DHT22;37657;53.182;5.638;2024-02-14T11:11:33;12.10;99.90
51567;DHT22;37657;53.182;5.638;2024-02-14T11:13:59;11.60;99.90
51567;DHT22;37657;53.182;5.638;2024-02-14T11:16:28;11.50;99.90
51567;DHT22;37657;53.182;5.638;2024-02-14T11:19:11;11.00;99.90
51567;DHT22;37657;53.182;5.638;2024-02-14T11:21:44;12.20;99.90
51567;DHT22;37657;53.182;5.638;2024-02-14T11:24:14;12.10;99.90
51567;DHT22;37657;53.182;5.638;2024-02-14T11:26:50;11.10;99.90
51567;DHT22;37657;53.182;5.638;2024-02-14T11:29:17;11.60;99.90
51567;DHT22;37657;53.182;5.638;2024-02-14T11:31:44;11.00;99.90
51567;DHT22;37657;53.182;5.638;2024-02-14T11:34:13;12.30;99.90
51567;DHT22;37657;53.182;5.638;2024-02-14T11:36:41;12.10;99.90
51567;DHT22;37657;53.182;5.638;2024-02-14T11:39:07;11.20;99.90
51567;DHT22;37657;53.182;5.638;2024-02-14T11:41:33;11.20;99.90
51567;DHT22;37657;53.182;5.638;2024-02-14T11:44:04;11.10;99.90
51567;DHT22;37657;53.182;5.638;2024-02-14T11:46:34;11.10;99.90
51567;DHT22;37657;53.182;5.638;2024-02-14T11:49:05;12.00;99.90
51567;DHT22;37657;53.182;5.638;2024-02-14T11:51:33;11.20;99.90
51567;DHT22;37657;53.182;5.638;2024-02-14T11:54:01;11.80;99.90
51567;DHT22;37657;53.182;5.638;2024-02-14T11:56:39;11.50;99.90
51567;DHT22;37657;53.182;5.638;2024-02-14T11:59:07;12.00;99.90
51567;DHT22;37657;53.182;5.638;2024-02-14T12:01:34;11.60;99.90
51567;DHT22;37657;53.182;5.638;2024-02-14T12:04:05;12.30;99.90
51567;DHT22;37657;53.182;5.638;2024-02-14T12:06:33;11.90;99.90
51567;DHT22;37657;53.182;5.638;2024-02-14T12:09:03;12.20;99.90
51567;DHT22;37657;53.182;5.638;2024-02-14T12:11:33;12.40;99.90
51567;DHT22;37657;53.182;5.638;2024-02-14T12:14:03;11.70;99.90
51567;DHT22;37657;53.182;5.638;2024-02-14T12:16:29;12.40;99.90
51567;DHT22;37657;53.182;5.638;2024-02-14T12:19:15;12.20;99.90
51567;DHT22;37657;53.182;5.638;2024-02-14T12:21:41;12.40;99.90
51567;DHT22;37657;53.182;5.638;2024-02-14T12:24:12;12.10;99.90
51567;DHT22;37657;53.182;5.638;2024-02-14T12:26:42;11.70;99.90
51567;DHT22;37657;53.182;5.638;2024-02-14T12:29:10;11.50;99.90
51567;DHT22;37657;53.182;5.638;2024-02-14T12:31:36;11.50;99.90
51567;DHT22;37657;53.182;5.638;2024-02-14T12:34:03;12.40;99.90
51567;DHT22;37657;53.182;5.638;2024-02-14T12:36:33;12.10;99.90
51567;DHT22;37657;53.182;5.638;2024-02-14T12:39:00;12.30;99.90
51567;DHT22;37657;53.182;5.638;2024-02-14T12:41:28;11.10;99.90
51567;DHT22;37657;53.182;5.638;2024-02-14T12:43:56;12.30;99.90
51567;DHT22;37657;53.182;5.638;2024-02-14T12:46:22;11.20;99.90
51567;DHT22;37657;53.182;5.638;2024-02-14T12:48:48;11.10;99.90
51567;DHT22;37657;53.182;5.638;2024-02-14T12:51:14;11.70;99.90
51567;DHT22;37657;53.182;5.638;2024-02-14T12:53:40;11.10;99.90
51567;DHT22;37657;53.182;5.638;2024-02-14T12:56:07;11.30;99.90
51567;DHT22;37657;53.182;5.638;2024-02-14T12:58:33;11.50;99.90
51567;DHT22;37657;53.182;5.638;2024-02-14T13:00:58;11.20;99.90
51567;DHT22;37657;53.182;5.638;2024-02-14T13:03:25;11.20;99.90
51567;DHT22;37657;53.182;5.638;2024-02-14T13:05:51;11.10;99.90
51567;DHT22;37657;53.182;5.638;2024-02-14T13:08:18;12.20;99.90
51567;DHT22;37657;53.182;5.638;2024-02-14T13:10:44;11.10;99.90
51567;DHT22;37657;53.182;5.638;2024-02-14T13:13:10;11.10;99.90
51567;DHT22;37657;53.182;5.638;2024-02-14T13:15:36;12.10;99.90
51567;DHT22;37657;53.182;5.638;2024-02-14T13:18:02;11.70;99.90
51567;DHT22;37657;53.182;5.638;2024-02-14T13:20:28;11.40;99.90
51567;DHT22;37657;53.182;5.638;2024-02-14T13:22:54;11.80;99.90
51567;DHT22;37657;53.182;5.638;2024-02-14T13:25:20;11.50;99.90
51567;DHT22;37657;53.182;5.638;2024-02-14T13:27:47;12.10;99.90
51567;DHT22;37657;53.182;5.638;2024-02-14T13:30:12;11.20;99.90
51567;DHT22;37657;53.182;5.638;2024-02-14T13:32:38;11.30;99.90
51567;DHT22;37657;53.182;5.638;2024-02-14T13:35:04;11.70;99.90
51567;DHT22;37657;53.182;5.638;2024-02-14T13:37:33;12.50;99.90
51567;DHT22;37657;53.182;5.638;2024-02-14T13:39:58;11.30;99.90
51567;DHT22;37657;53.182;5.638;2024-02-14T13:42:24;12.50;99.90
51567;DHT22;37657;53.182;5.638;2024-02-14T13:44:50;11.40;99.90
51567;DHT22;37657;53.182;5.638;2024-02-14T13:47:18;12.70;99.90
51567;DHT22;37657;53.182;5.638;2024-02-14T13:49:44;12.70;99.90
51567;DHT22;37657;53.182;5.638;2024-02-14T13:52:10;11.40;99.90
51567;DHT22;37657;53.182;5.638;2024-02-14T13:54:36;12.50;99.90
51567;DHT22;37657;53.182;5.638;2024-02-14T13:57:01;11.70;99.90
51567;DHT22;37657;53.182;5.638;2024-02-14T13:59:28;12.60;99.90
51567;DHT22;37657;53.182;5.638;2024-02-14T14:01:54;11.70;99.90
51567;DHT22;37657;53.182;5.638;2024-02-14T14:04:20;11.70;99.90
51567;DHT22;37657;53.182;5.638;2024-02-14T14:06:46;11.30;99.90
51567;DHT22;37657;53.182;5.638;2024-02-14T14:09:13;12.30;99.90
51567;DHT22;37657;53.182;5.638;2024-02-14T14:11:39;12.50;99.90
51567;DHT22;37657;53.182;5.638;2024-02-14T14:14:05;11.50;99.90
51567;DHT22;37657;53.182;5.638;2024-02-14T14:16:31;11.80;99.90
51567;DHT22;37657;53.182;5.638;2024-02-14T14:18:58;11.30;99.90
51567;DHT22;37657;53.182;5.638;2024-02-14T14:21:24;11.30;99.90
51567;DHT22;37657;53.182;5.638;2024-02-14T14:23:50;11.70;99.90
51567;DHT22;37657;53.182;5.638;2024-02-14T14:26:15;12.70;99.90
51567;DHT22;37657;53.182;5.638;2024-02-14T14:28:41;12.70;99.90
51567;DHT22;37657;53.182;5.638;2024-02-14T14:31:08;11.90;99.90
51567;DHT22;37657;53.182;5.638;2024-02-14T14:33:36;12.70;99.90
51567;DHT22;37657;53.182;5.638;2024-02-14T14:36:04;11.80;99.90
51567;DHT22;37657;53.182;5.638;2024-02-14T14:38:30;11.60;99.90
51567;DHT22;37657;53.182;5.638;2024-02-14T14:40:56;12.20;99.90
51567;DHT22;37657;53.182;5.638;2024-02-14T14:43:22;12.80;99.90
51567;DHT22;37657;53.182;5.638;2024-02-14T14:45:48;11.60;99.90
51567;DHT22;37657;53.182;5.638;2024-02-14T14:48:15;12.20;99.90
51567;DHT22;37657;53.182;5.638;2024-02-14T14:50:41;11.50;99.90
51567;DHT22;37657;53.182;5.638;2024-02-14T14:53:07;11.90;99.90
51567;DHT22;37657;53.182;5.638;2024-02-14T14:55:56;12.10;99.90
51567;DHT22;37657;53.182;5.638;2024-02-14T14:58:25;11.40;99.90
51567;DHT22;37657;53.182;5.638;2024-02-14T15:00:59;12.60;99.90
51567;DHT22;37657;53.182;5.638;2024-02-14T15:03:25;12.30;99.90
51567;DHT22;37657;53.182;5.638;2024-02-14T15:05:51;11.40;99.90
51567;DHT22;37657;53.182;5.638;2024-02-14T15:08:18;11.80;99.90
51567;DHT22;37657;53.182;5.638;2024-02-14T15:10:48;11.80;99.90
51567;DHT22;37657;53.182;5.638;2024-02-14T15:13:16;12.60;99.90
51567;DHT22;37657;53.182;5.638;2024-02-14T15:15:41;11.50;99.90
51567;DHT22;37657;53.182;5.638;2024-02-14T15:18:07;12.40;99.90
51567;DHT22;37657;53.182;5.638;2024-02-14T15:20:33;12.00;99.90
51567;DHT22;37657;53.182;5.638;2024-02-14T15:23:02;12.30;99.90
51567;DHT22;37657;53.182;5.638;2024-02-14T15:25:28;11.60;99.90
51567;DHT22;37657;53.182;5.638;2024-02-14T15:27:53;12.60;99.90
51567;DHT22;37657;53.182;5.638;2024-02-14T15:30:26;11.40;99.90
51567;DHT22;37657;53.182;5.638;2024-02-14T15:33:11;12.50;99.90